createdAt,value
2019-03-20T00:01:55.165Z,34.03
2019-03-20T00:04:25.560Z,36.57
2019-03-20T00:06:56.326Z,36.40
2019-03-20T00:09:26.457Z,34.50
2019-03-20T00:11:56.691Z,37.63
2019-03-20T00:14:26.786Z,38.67
2019-03-20T00:16:56.928Z,41.83
2019-03-20T00:19:27.062Z,38.90
2019-03-20T00:21:57.305Z,40.53
2019-03-20T00:24:27.434Z,44.40
2019-03-20T00:26:57.675Z,40.60
2019-03-20T00:29:27.809Z,43.57
2019-03-20T00:31:57.903Z,43.37
2019-03-20T00:34:27.959Z,41.93
2019-03-20T00:36:58.191Z,44.70
2019-03-20T00:39:28.325Z,45.93
2019-03-20T00:41:58.407Z,44.50
2019-03-20T00:44:28.524Z,49.23
2019-03-20T00:46:58.748Z,49.60
2019-03-20T00:49:28.819Z,46.77
2019-03-20T00:51:59.031Z,47.40
2019-03-20T00:54:29.250Z,46.67
2019-03-20T00:56:59.471Z,56.60
2019-03-20T00:59:29.762Z,52.07
2019-03-20T01:02:00.064Z,56.73
2019-03-20T01:04:30.252Z,53.00
2019-03-20T01:07:00.488Z,53.00
2019-03-20T01:09:30.754Z,54.30
2019-03-20T01:12:00.883Z,56.30
2019-03-20T01:14:31.579Z,48.80
2019-03-20T01:17:01.679Z,56.27
2019-03-20T01:19:31.762Z,56.07
2019-03-20T01:22:01.988Z,53.67
2019-03-20T01:24:32.200Z,58.17
2019-03-20T01:27:02.421Z,57.33
2019-03-20T01:29:32.506Z,57.77
2019-03-20T01:32:02.716Z,55.47
2019-03-20T01:34:33.244Z,54.00
2019-03-20T01:37:03.351Z,54.20
2019-03-20T01:39:33.498Z,60.07
2019-03-20T01:42:03.726Z,56.80
2019-03-20T01:44:33.766Z,60.77
2019-03-20T01:47:06.659Z,59.70
2019-03-20T01:49:35.887Z,61.80
2019-03-20T01:52:06.853Z,59.35
2019-03-20T01:54:36.942Z,59.87
2019-03-20T01:57:07.138Z,55.83
2019-03-20T01:59:37.218Z,63.27
2019-03-20T02:02:07.426Z,64.27
2019-03-20T02:04:37.502Z,62.20
2019-03-20T02:07:07.631Z,67.57
2019-03-20T02:09:37.687Z,59.37
2019-03-20T02:12:07.844Z,61.53
2019-03-20T02:14:38.282Z,56.67
2019-03-20T02:17:08.393Z,56.53
2019-03-20T02:19:38.522Z,62.60
2019-03-20T02:22:08.731Z,54.88
2019-03-20T02:24:38.851Z,56.70
2019-03-20T02:27:09.157Z,61.43
2019-03-20T02:29:39.279Z,55.87
2019-03-20T02:32:09.362Z,64.00
2019-03-20T02:34:39.487Z,58.33
2019-03-20T02:37:09.689Z,55.70
2019-03-20T02:39:39.735Z,62.47
2019-03-20T02:42:09.851Z,62.07
2019-03-20T02:44:39.917Z,58.23
2019-03-20T02:47:10.121Z,59.13
2019-03-20T02:49:40.258Z,68.37
2019-03-20T02:52:10.306Z,62.47
2019-03-20T02:54:40.378Z,64.83
2019-03-20T02:57:10.520Z,68.03
2019-03-20T02:59:40.673Z,64.63
2019-03-20T03:02:10.862Z,65.67
2019-03-20T03:04:40.984Z,68.17
2019-03-20T03:07:11.374Z,70.03
2019-03-20T03:09:41.780Z,66.57
2019-03-20T03:12:12.239Z,66.50
2019-03-20T03:14:42.555Z,68.60
2019-03-20T03:17:12.979Z,69.33
2019-03-20T03:19:43.250Z,70.23
2019-03-20T03:22:13.621Z,72.90
2019-03-20T03:24:44.015Z,73.07
2019-03-20T03:27:14.333Z,73.83
2019-03-20T03:29:44.640Z,76.50
2019-03-20T03:32:15.152Z,79.87
2019-03-20T03:34:45.446Z,68.13
2019-03-20T03:37:18.920Z,76.92
2019-03-20T03:39:49.278Z,79.90
2019-03-20T03:42:19.583Z,77.43
2019-03-20T03:44:50.033Z,73.87
2019-03-20T03:47:20.485Z,77.92
2019-03-20T03:49:50.901Z,83.07
2019-03-20T03:52:21.432Z,69.25
2019-03-20T03:54:51.714Z,70.17
2019-03-20T03:57:22.126Z,79.20
2019-03-20T03:59:52.499Z,75.77
2019-03-20T04:02:22.888Z,76.27
2019-03-20T04:04:53.371Z,76.70
2019-03-20T04:07:24.004Z,73.33
2019-03-20T04:09:54.279Z,71.87
2019-03-20T04:12:24.542Z,80.63
2019-03-20T04:14:54.849Z,75.67
2019-03-20T04:17:27.772Z,76.03
2019-03-20T04:19:58.200Z,78.00
2019-03-20T04:22:28.667Z,80.10
2019-03-20T04:24:58.917Z,73.40
2019-03-20T04:27:29.328Z,73.13
2019-03-20T04:29:59.829Z,73.43
2019-03-20T04:32:30.363Z,74.62
2019-03-20T04:35:00.681Z,77.27
2019-03-20T04:37:30.945Z,70.10
2019-03-20T04:40:01.207Z,79.97
2019-03-20T04:42:31.581Z,76.10
2019-03-20T04:45:02.077Z,75.00
2019-03-20T04:47:32.585Z,74.60
2019-03-20T04:50:02.953Z,72.47
2019-03-20T04:52:33.177Z,73.83
2019-03-20T04:55:03.704Z,73.87
2019-03-20T04:57:34.021Z,75.97
2019-03-20T05:00:04.743Z,74.83
2019-03-20T05:02:34.973Z,84.07
2019-03-20T05:05:05.356Z,74.67
2019-03-20T05:07:35.436Z,71.73
2019-03-20T05:10:16.716Z,70.13
2019-03-20T05:12:46.930Z,80.85
2019-03-20T05:15:17.131Z,73.40
2019-03-20T05:17:47.455Z,70.87
2019-03-20T05:20:17.580Z,74.53
2019-03-20T05:22:47.716Z,79.87
2019-03-20T05:25:17.836Z,78.43
2019-03-20T05:27:47.956Z,71.93
2019-03-20T05:30:18.334Z,76.27
2019-03-20T05:32:48.567Z,79.50
2019-03-20T05:35:18.617Z,81.00
2019-03-20T05:37:48.725Z,71.63
2019-03-20T05:40:18.960Z,73.97
2019-03-20T05:42:49.095Z,78.60
2019-03-20T05:45:19.313Z,72.65
2019-03-20T05:47:49.382Z,77.30
2019-03-20T05:50:19.588Z,73.80
2019-03-20T05:52:49.997Z,75.67
2019-03-20T05:55:20.235Z,79.60
2019-03-20T05:57:50.392Z,73.83
2019-03-20T06:00:21.005Z,71.15
2019-03-20T06:02:51.247Z,69.80
2019-03-20T06:05:21.370Z,71.60
2019-03-20T06:07:51.455Z,69.23
2019-03-20T06:10:21.597Z,75.72
2019-03-20T06:12:51.948Z,69.30
2019-03-20T06:15:24.544Z,74.42
2019-03-20T06:17:55.203Z,76.73
2019-03-20T06:20:25.645Z,68.97
2019-03-20T06:22:56.154Z,78.60
2019-03-20T06:25:26.521Z,69.57
2019-03-20T06:27:57.351Z,74.23
2019-03-20T06:30:27.831Z,74.27
2019-03-20T06:32:59.861Z,68.27
2019-03-20T06:35:30.471Z,78.33
2019-03-20T06:38:00.827Z,72.33
2019-03-20T06:40:31.213Z,67.30
2019-03-20T06:43:01.529Z,69.33
2019-03-20T06:45:31.974Z,75.13
2019-03-20T06:48:02.425Z,69.77
2019-03-20T06:50:32.891Z,70.07
2019-03-20T06:53:03.352Z,70.83
2019-03-20T06:55:33.741Z,68.57
2019-03-20T06:58:04.191Z,65.10
2019-03-20T07:01:16.090Z,79.87
2019-03-20T07:04:20.429Z,66.60
2019-03-20T07:07:15.355Z,67.83
2019-03-20T07:10:38.115Z,65.30
2019-03-20T07:13:08.564Z,65.70
2019-03-20T07:15:38.928Z,72.30
2019-03-20T07:18:09.431Z,65.13
2019-03-20T07:20:39.856Z,69.30
2019-03-20T07:23:10.737Z,69.10
2019-03-20T07:25:41.189Z,60.17
2019-03-20T07:28:11.563Z,65.32
2019-03-20T07:30:42.672Z,66.67
2019-03-20T07:33:13.057Z,63.02
2019-03-20T07:35:43.450Z,72.07
2019-03-20T07:38:13.919Z,66.30
2019-03-20T07:40:44.153Z,76.63
2019-03-20T07:43:14.433Z,66.47
2019-03-20T07:45:44.698Z,66.07
2019-03-20T07:48:22.003Z,68.40
2019-03-20T07:50:46.869Z,64.53
2019-03-20T07:53:17.037Z,62.53
2019-03-20T07:55:47.259Z,69.73
2019-03-20T07:58:17.513Z,63.85
2019-03-20T08:00:47.672Z,68.70
2019-03-20T08:03:17.958Z,67.94
2019-03-20T08:05:48.178Z,61.93
2019-03-20T08:08:18.532Z,66.93
2019-03-20T08:10:48.707Z,68.87
2019-03-20T08:13:19.090Z,68.52
2019-03-20T08:15:49.468Z,68.63
2019-03-20T08:18:19.594Z,66.92
2019-03-20T08:20:49.751Z,68.00
2019-03-20T08:23:20.040Z,67.03
2019-03-20T08:25:50.147Z,69.20
2019-03-20T08:28:20.299Z,64.20
2019-03-20T08:30:50.378Z,67.57
2019-03-20T08:33:20.872Z,62.90
2019-03-20T08:35:50.942Z,68.87
2019-03-20T08:38:25.460Z,66.13
2019-03-20T08:40:55.717Z,65.08
2019-03-20T08:43:25.904Z,65.43
2019-03-20T08:45:56.162Z,66.90
2019-03-20T08:48:26.457Z,69.80
2019-03-20T08:50:56.739Z,61.50
2019-03-20T08:53:26.867Z,67.07
2019-03-20T08:55:57.205Z,66.23
2019-03-20T08:58:27.370Z,66.37
2019-03-20T09:00:57.633Z,72.67
2019-03-20T09:03:27.782Z,68.57
2019-03-20T09:05:57.977Z,64.10
2019-03-20T09:08:29.801Z,65.57
2019-03-20T09:11:00.201Z,67.27
2019-03-20T09:13:30.368Z,65.70
2019-03-20T09:16:00.435Z,66.77
2019-03-20T09:18:30.606Z,68.20
2019-03-20T09:21:00.792Z,69.97
2019-03-20T09:23:31.024Z,66.10
2019-03-20T09:26:01.129Z,67.83
2019-03-20T09:28:31.409Z,67.03
2019-03-20T09:31:01.666Z,64.07
2019-03-20T09:33:31.847Z,67.37
2019-03-20T09:36:02.043Z,73.50
2019-03-20T09:38:42.738Z,66.93
2019-03-20T09:41:04.304Z,66.57
2019-03-20T09:43:34.516Z,68.97
2019-03-20T09:46:06.949Z,70.73
2019-03-20T09:48:37.083Z,70.97
2019-03-20T09:51:07.242Z,66.20
2019-03-20T09:56:16.065Z,65.93
2019-03-20T09:58:46.311Z,64.70
2019-03-20T10:01:16.530Z,67.60
2019-03-20T10:03:48.942Z,64.70
2019-03-20T10:06:19.111Z,70.12
2019-03-20T10:08:54.028Z,68.67
2019-03-20T10:11:21.447Z,65.00
2019-03-20T10:13:54.932Z,67.13
2019-03-20T10:16:25.248Z,71.17
2019-03-20T10:18:55.470Z,71.00
2019-03-20T10:21:25.669Z,67.70
2019-03-20T10:23:55.952Z,67.57
2019-03-20T10:26:26.118Z,73.33
2019-03-20T10:28:56.247Z,73.97
2019-03-20T10:31:26.375Z,70.60
2019-03-20T10:33:56.625Z,72.57
2019-03-20T10:36:26.935Z,68.70
2019-03-20T10:39:06.018Z,69.27
2019-03-20T10:41:29.464Z,73.07
2019-03-20T10:43:59.788Z,75.63
2019-03-20T10:46:30.521Z,74.03
2019-03-20T10:49:00.798Z,79.53
2019-03-20T10:51:31.052Z,69.77
2019-03-20T10:54:01.380Z,81.20
2019-03-20T10:56:31.721Z,72.73
2019-03-20T10:59:02.015Z,75.03
2019-03-20T11:01:42.063Z,80.60
2019-03-20T11:04:04.632Z,72.83
2019-03-20T11:06:34.969Z,73.90
2019-03-20T11:09:17.630Z,76.87
2019-03-20T11:11:40.291Z,78.50
2019-03-20T11:14:10.638Z,72.93
2019-03-20T11:16:40.960Z,74.70
2019-03-20T11:19:11.214Z,80.10
2019-03-20T11:21:41.424Z,78.17
2019-03-20T11:24:11.784Z,74.67
2019-03-20T11:26:41.990Z,71.30
2019-03-20T11:29:12.149Z,72.40
2019-03-20T11:31:42.470Z,78.77
2019-03-20T11:34:13.043Z,75.67
2019-03-20T11:36:43.460Z,76.27
2019-03-20T11:39:13.768Z,73.23
2019-03-20T11:41:43.984Z,76.83
2019-03-20T11:44:14.417Z,78.10
2019-03-20T11:46:44.741Z,79.53
2019-03-20T11:49:15.136Z,76.53
2019-03-20T11:51:45.389Z,75.90
2019-03-20T11:54:15.877Z,73.40
2019-03-20T11:56:46.070Z,76.43
2019-03-20T11:59:16.356Z,68.87
2019-03-20T12:01:46.580Z,73.20
2019-03-20T12:04:16.735Z,80.35
2019-03-20T12:06:46.883Z,78.73
2019-03-20T12:09:17.080Z,80.00
2019-03-20T12:11:47.183Z,73.83
2019-03-20T12:14:17.473Z,83.33
2019-03-20T12:16:47.752Z,82.07
2019-03-20T12:19:17.908Z,86.90
2019-03-20T12:21:48.242Z,80.37
2019-03-20T12:24:18.329Z,83.05
2019-03-20T12:26:48.665Z,80.13
2019-03-20T12:29:19.048Z,81.10
2019-03-20T12:31:49.354Z,82.97
2019-03-20T12:34:19.491Z,86.45
2019-03-20T12:36:49.802Z,88.10
2019-03-20T12:39:20.110Z,80.80
2019-03-20T12:41:50.350Z,85.27
2019-03-20T12:44:20.634Z,81.60
2019-03-20T12:46:50.904Z,85.13
2019-03-20T12:49:21.059Z,86.00
2019-03-20T12:51:51.373Z,84.63
2019-03-20T12:54:21.622Z,86.72
2019-03-20T12:56:52.235Z,78.53
2019-03-20T12:59:22.542Z,87.00
2019-03-20T13:01:52.828Z,90.37
2019-03-20T13:04:24.948Z,81.70
2019-03-20T13:06:55.285Z,85.33
2019-03-20T13:09:25.567Z,88.97
2019-03-20T13:11:55.850Z,78.53
2019-03-20T13:14:26.181Z,78.50
2019-03-20T13:16:56.572Z,85.47
2019-03-20T13:19:26.978Z,77.10
2019-03-20T13:21:57.316Z,85.10
2019-03-20T13:24:27.584Z,73.87
2019-03-20T13:26:58.109Z,78.70
2019-03-20T13:29:28.456Z,81.63
2019-03-20T13:31:58.693Z,74.73
2019-03-20T13:34:29.051Z,69.15
2019-03-20T13:36:59.345Z,69.27
2019-03-20T13:39:29.683Z,71.60
2019-03-20T13:41:59.817Z,76.90
2019-03-20T13:44:30.634Z,73.57
2019-03-20T13:47:01.102Z,71.40
2019-03-20T13:49:31.557Z,71.53
2019-03-20T13:52:01.796Z,68.50
2019-03-20T13:54:32.029Z,75.47
2019-03-20T13:57:02.304Z,75.87
2019-03-20T13:59:32.460Z,73.47
2019-03-20T14:02:02.795Z,73.63
2019-03-20T14:04:32.992Z,68.43
2019-03-20T14:07:03.101Z,69.67
2019-03-20T14:09:33.326Z,69.77
2019-03-20T14:12:03.959Z,76.17
2019-03-20T14:14:34.256Z,71.90
2019-03-20T14:17:04.701Z,69.53
2019-03-20T14:19:35.011Z,69.73
2019-03-20T14:22:05.291Z,72.27
2019-03-20T14:24:36.115Z,65.53
2019-03-20T14:27:07.105Z,69.53
2019-03-20T14:29:39.882Z,69.37
2019-03-20T14:32:13.377Z,69.37
2019-03-20T14:34:43.727Z,64.13
2019-03-20T14:37:14.092Z,71.22
2019-03-20T14:39:47.639Z,63.03
2019-03-20T14:42:17.950Z,66.43
2019-03-20T14:44:52.729Z,67.40
2019-03-20T14:47:23.014Z,65.72
2019-03-20T14:49:53.326Z,57.00
2019-03-20T14:52:23.636Z,58.83
2019-03-20T14:54:53.874Z,56.27
2019-03-20T14:57:25.850Z,62.80
2019-03-20T14:59:56.079Z,61.53
2019-03-20T15:02:26.394Z,62.80
2019-03-20T15:04:56.771Z,61.27
2019-03-20T15:07:26.881Z,59.00
2019-03-20T15:09:57.118Z,63.13
2019-03-20T15:12:27.462Z,59.18
2019-03-20T15:14:57.649Z,57.57
2019-03-20T15:17:28.122Z,58.30
2019-03-20T15:19:58.310Z,60.90
2019-03-20T15:22:28.440Z,57.07
2019-03-20T15:24:58.772Z,60.03
2019-03-20T15:27:28.957Z,53.70
2019-03-20T15:30:04.337Z,57.73
2019-03-20T15:32:35.738Z,55.13
2019-03-20T15:35:10.360Z,56.73
2019-03-20T15:37:43.184Z,54.97
2019-03-20T15:40:15.703Z,56.60
2019-03-20T15:42:45.956Z,53.47
2019-03-20T15:45:16.773Z,54.60
2019-03-20T15:47:46.975Z,61.97
2019-03-20T15:50:17.875Z,56.00
2019-03-20T15:52:48.177Z,55.25
2019-03-20T15:55:25.197Z,53.42
2019-03-20T15:57:55.473Z,55.77
2019-03-20T16:00:25.786Z,58.38
2019-03-20T16:03:00.082Z,55.03
2019-03-20T16:05:30.229Z,55.37
2019-03-20T16:08:00.356Z,60.70
2019-03-20T16:10:33.695Z,60.27
2019-03-20T16:13:03.885Z,51.30
2019-03-20T16:15:34.306Z,56.80
2019-03-20T16:18:04.815Z,54.20
2019-03-20T16:20:35.326Z,52.50
2019-03-20T16:23:07.100Z,52.63
2019-03-20T16:25:37.524Z,58.17
2019-03-20T16:28:08.140Z,51.63
2019-03-20T16:30:38.643Z,52.93
2019-03-20T16:33:09.083Z,51.10
2019-03-20T16:35:39.604Z,54.00
2019-03-20T16:38:10.356Z,56.07
2019-03-20T16:40:40.803Z,52.67
2019-03-20T16:43:11.199Z,44.63
2019-03-20T16:45:41.713Z,51.70
2019-03-20T16:48:12.145Z,55.95
2019-03-20T16:51:11.402Z,47.87
2019-03-20T16:53:41.333Z,51.67
2019-03-20T16:56:11.581Z,46.50
2019-03-20T16:58:41.714Z,51.70
2019-03-20T17:01:11.944Z,44.00
2019-03-20T17:03:42.076Z,51.80
2019-03-20T17:06:12.355Z,48.37
2019-03-20T17:08:42.512Z,49.73
2019-03-20T17:11:12.697Z,46.87
2019-03-20T17:13:43.008Z,47.60
2019-03-20T17:16:13.235Z,47.23
2019-03-20T17:18:43.405Z,46.47
2019-03-20T17:21:13.944Z,49.00
2019-03-20T17:23:44.436Z,51.33
2019-03-20T17:26:15.040Z,45.17
2019-03-20T17:28:45.423Z,48.97
2019-03-20T17:31:15.870Z,47.57
2019-03-20T17:33:46.399Z,44.30
2019-03-20T17:36:18.425Z,49.57
2019-03-20T17:38:48.861Z,46.93
2019-03-20T17:41:43.132Z,46.98
2019-03-20T17:44:13.643Z,46.27
2019-03-20T17:46:43.915Z,48.30
2019-03-20T17:49:13.962Z,44.75
2019-03-20T17:51:44.032Z,48.83
2019-03-20T17:54:14.192Z,46.33
2019-03-20T17:56:44.253Z,48.30
2019-03-20T17:59:14.396Z,49.18
2019-03-20T18:01:44.533Z,47.77
2019-03-20T18:04:14.618Z,53.55
2019-03-20T18:06:44.768Z,44.43
2019-03-20T18:09:15.023Z,47.03
2019-03-20T18:11:47.776Z,53.87
2019-03-20T18:14:17.113Z,48.20
2019-03-20T18:16:47.302Z,46.73
2019-03-20T18:19:17.443Z,46.63
2019-03-20T18:21:47.666Z,46.07
2019-03-20T18:24:17.738Z,45.57
2019-03-20T18:26:47.878Z,48.00
2019-03-20T18:29:18.055Z,46.90
2019-03-20T18:31:48.382Z,43.30
2019-03-20T18:34:18.646Z,43.10
2019-03-20T18:36:49.382Z,42.67
2019-03-20T18:39:20.640Z,38.70
2019-03-20T18:41:57.806Z,44.50
2019-03-20T18:44:22.850Z,39.73
2019-03-20T18:46:53.097Z,40.20
2019-03-20T18:49:23.304Z,42.45
2019-03-20T18:51:53.515Z,43.53
2019-03-20T18:54:23.748Z,40.95
2019-03-20T18:56:53.798Z,40.00
2019-03-20T18:59:23.947Z,40.23
2019-03-20T19:01:54.098Z,37.43
2019-03-20T19:04:26.090Z,42.38
2019-03-20T19:06:56.220Z,44.33
2019-03-20T19:09:26.375Z,43.07
2019-03-20T19:11:56.563Z,38.37
2019-03-20T19:14:26.624Z,37.23
2019-03-20T19:16:56.901Z,41.60
2019-03-20T19:19:27.067Z,43.47
2019-03-20T19:21:57.291Z,46.23
2019-03-20T19:24:27.497Z,44.93
2019-03-20T19:26:57.669Z,53.17
2019-03-20T19:29:27.959Z,43.50
2019-03-20T19:31:58.203Z,50.50
2019-03-20T19:34:28.441Z,50.33
2019-03-20T19:36:58.748Z,58.23
2019-03-20T19:39:29.192Z,60.87
2019-03-20T19:41:59.351Z,62.97
2019-03-20T19:44:31.539Z,62.50
2019-03-20T19:47:01.863Z,67.83
2019-03-20T19:49:32.134Z,68.22
2019-03-20T19:52:02.255Z,78.90
2019-03-20T19:54:32.506Z,74.80
2019-03-20T19:57:02.909Z,78.02
2019-03-20T19:59:33.009Z,69.17
2019-03-20T20:02:03.157Z,74.57
2019-03-20T20:04:33.295Z,78.50
2019-03-20T20:07:03.451Z,77.03
2019-03-20T20:09:33.518Z,85.40
2019-03-20T20:12:03.623Z,73.57
2019-03-20T20:14:33.709Z,81.37
2019-03-20T20:17:03.820Z,88.20
2019-03-20T20:19:34.355Z,99.77
2019-03-20T20:22:05.316Z,83.37
2019-03-20T20:24:36.017Z,85.33
2019-03-20T20:27:09.724Z,85.75
2019-03-20T20:29:40.209Z,78.70
2019-03-20T20:34:38.583Z,79.53
2019-03-20T20:37:09.214Z,70.63
2019-03-20T20:39:40.302Z,65.47
2019-03-20T20:42:10.881Z,69.77
2019-03-20T20:44:41.535Z,76.17
2019-03-20T20:47:12.559Z,70.10
2019-03-20T20:49:43.391Z,68.10
2019-03-20T20:52:19.448Z,69.73
2019-03-20T20:57:17.053Z,69.53
2019-03-20T20:59:53.516Z,62.03
2019-03-20T21:02:24.099Z,69.60
2019-03-20T21:04:54.644Z,63.30
2019-03-20T21:07:26.620Z,68.53
2019-03-20T21:09:57.179Z,65.50
2019-03-20T21:12:27.641Z,69.37
2019-03-20T21:14:58.403Z,64.60
2019-03-20T21:18:56.396Z,65.40
2019-03-20T21:21:40.124Z,69.07
2019-03-20T21:24:27.842Z,66.67
2019-03-20T21:28:03.093Z,68.90
2019-03-20T21:31:13.229Z,68.27
2019-03-20T21:34:58.991Z,61.53
2019-03-20T21:38:09.515Z,59.43
2019-03-20T21:41:24.399Z,61.60
2019-03-20T21:44:34.479Z,62.53
2019-03-20T21:47:33.243Z,60.07
2019-03-20T21:51:20.529Z,58.90
2019-03-20T21:54:59.138Z,58.87
2019-03-20T21:58:12.089Z,60.47
2019-03-20T22:01:48.950Z,62.10
2019-03-20T22:04:20.204Z,54.77
2019-03-20T22:07:10.975Z,51.87
2019-03-20T22:10:39.256Z,56.08
2019-03-20T22:13:19.719Z,56.27
2019-03-20T22:16:26.631Z,52.37
2019-03-20T22:19:41.553Z,55.78
2019-03-20T22:23:31.279Z,59.08
2019-03-20T22:27:21.774Z,62.93
2019-03-20T22:29:52.679Z,55.73
2019-03-20T22:33:23.804Z,60.03
2019-03-20T22:36:19.971Z,54.53
2019-03-20T22:40:07.828Z,64.20
2019-03-20T22:43:04.254Z,62.87
2019-03-20T22:46:31.655Z,62.30
2019-03-20T22:50:26.783Z,60.53
2019-03-20T22:53:52.043Z,70.50
2019-03-20T22:57:33.502Z,71.27
2019-03-20T23:00:05.441Z,72.13
2019-03-20T23:03:02.651Z,76.37
2019-03-20T23:05:33.800Z,84.00
2019-03-20T23:08:13.394Z,83.83
2019-03-20T23:10:45.101Z,90.13
2019-03-20T23:13:19.201Z,92.47
2019-03-20T23:15:49.169Z,83.47
2019-03-20T23:18:20.408Z,82.47
2019-03-20T23:20:51.536Z,96.30
2019-03-20T23:23:22.541Z,87.55
2019-03-20T23:25:53.478Z,92.40
2019-03-20T23:28:25.246Z,90.75
2019-03-20T23:30:56.343Z,93.23
2019-03-20T23:33:27.369Z,97.30
2019-03-20T23:35:58.542Z,99.83
2019-03-20T23:38:29.626Z,96.67
2019-03-20T23:41:00.603Z,96.43
2019-03-20T23:43:31.476Z,93.43
2019-03-20T23:46:02.594Z,95.33
2019-03-20T23:49:00.048Z,97.27
2019-03-20T23:51:31.082Z,96.03
2019-03-20T23:54:02.122Z,97.20
2019-03-20T23:56:34.992Z,95.57
2019-03-20T23:59:06.743Z,92.47
